createdAt,value
2023-05-08T00:01:05.029Z,10.19
2023-05-08T00:06:09.454Z,10.10
2023-05-08T00:11:14.841Z,10.11
2023-05-08T00:16:19.018Z,10.07
2023-05-08T00:21:22.972Z,10.10
2023-05-08T00:26:29.195Z,10.14
2023-05-08T00:31:33.152Z,10.12
2023-05-08T00:36:38.381Z,10.10
2023-05-08T00:41:45.734Z,9.86
2023-05-08T00:46:50.244Z,9.45
2023-05-08T00:51:56.932Z,9.31
2023-05-08T00:57:02.510Z,9.28
2023-05-08T01:02:06.618Z,9.19
2023-05-08T01:07:10.856Z,9.13
2023-05-08T01:12:21.788Z,9.12
2023-05-08T01:17:33.416Z,9.09
2023-05-08T01:23:09.996Z,8.99
2023-05-08T01:28:33.474Z,9.03
2023-05-08T01:33:46.874Z,9.08
2023-05-08T01:38:57.578Z,9.04
2023-05-08T01:44:11.979Z,8.79
2023-05-08T01:49:25.394Z,8.86
2023-05-08T01:54:35.318Z,8.65
2023-05-08T01:59:43.120Z,8.66
2023-05-08T02:04:50.548Z,8.56
2023-05-08T02:09:56.758Z,8.36
2023-05-08T02:15:03.235Z,8.07
2023-05-08T02:20:15.311Z,8.08
2023-05-08T02:25:23.695Z,7.98
2023-05-08T02:30:30.688Z,8.10
2023-05-08T02:35:37.136Z,8.05
2023-05-08T02:40:46.626Z,8.12
2023-05-08T02:45:59.085Z,8.16
2023-05-08T02:51:16.516Z,8.01
2023-05-08T02:56:28.488Z,7.94
2023-05-08T03:01:38.900Z,7.99
2023-05-08T03:06:46.725Z,7.98
2023-05-08T03:11:54.984Z,7.96
2023-05-08T03:17:02.104Z,7.85
2023-05-08T03:22:09.595Z,7.84
2023-05-08T03:27:15.045Z,7.80
2023-05-08T03:32:20.997Z,7.82
2023-05-08T03:37:28.292Z,7.96
2023-05-08T03:42:32.739Z,7.98
2023-05-08T03:47:38.667Z,7.94
2023-05-08T03:52:44.960Z,8.12
2023-05-08T03:57:57.087Z,8.34
2023-05-08T04:03:12.632Z,8.57
2023-05-08T04:08:24.280Z,8.64
2023-05-08T04:13:32.648Z,8.99
2023-05-08T04:18:45.433Z,9.37
2023-05-08T04:23:52.819Z,9.76
2023-05-08T04:28:57.074Z,10.10
2023-05-08T04:34:01.500Z,10.17
2023-05-08T04:39:06.911Z,10.19
2023-05-08T04:44:11.594Z,10.28
2023-05-08T04:49:15.896Z,10.42
2023-05-08T04:54:21.774Z,10.33
2023-05-08T04:59:26.710Z,10.31
2023-05-08T05:04:30.755Z,10.45
2023-05-08T05:09:37.214Z,10.86
2023-05-08T05:14:41.967Z,11.43
2023-05-08T05:19:46.036Z,11.60
2023-05-08T05:24:51.710Z,12.01
2023-05-08T05:29:55.839Z,12.51
2023-05-08T05:34:59.980Z,12.84
2023-05-08T05:40:07.658Z,13.51
2023-05-08T05:45:13.546Z,13.64
2023-05-08T05:50:19.740Z,13.75
2023-05-08T05:55:25.918Z,13.53
2023-05-08T06:00:30.828Z,13.38
2023-05-08T06:05:35.910Z,13.44
2023-05-08T06:10:41.559Z,13.50
2023-05-08T06:15:46.473Z,14.37
2023-05-08T06:20:50.606Z,14.58
2023-05-08T06:25:58.923Z,14.26
2023-05-08T06:31:03.124Z,14.46
2023-05-08T06:36:07.915Z,14.47
2023-05-08T06:41:15.169Z,14.31
2023-05-08T06:46:19.532Z,14.72
2023-05-08T06:51:23.439Z,15.95
2023-05-08T06:56:28.736Z,16.27
2023-05-08T07:01:32.722Z,17.10
2023-05-08T07:06:36.667Z,17.53
2023-05-08T07:11:42.412Z,17.14
2023-05-08T07:16:46.325Z,17.28
2023-05-08T07:21:51.579Z,17.55
2023-05-08T07:26:57.293Z,17.53
2023-05-08T07:32:01.394Z,17.86
2023-05-08T07:37:05.383Z,17.97
2023-05-08T07:42:11.871Z,18.59
2023-05-08T07:47:15.733Z,18.97
2023-05-08T07:52:19.654Z,19.24
2023-05-08T07:57:24.931Z,19.47
2023-05-08T08:02:28.956Z,19.46
2023-05-08T08:07:33.809Z,20.43
2023-05-08T08:12:39.171Z,20.26
2023-05-08T08:17:43.176Z,19.91
2023-05-08T08:22:47.113Z,19.91
2023-05-08T08:27:52.480Z,19.35
2023-05-08T08:32:56.430Z,18.25
2023-05-08T08:38:00.434Z,18.38
2023-05-08T08:43:05.895Z,19.93
2023-05-08T08:48:12.804Z,21.10
2023-05-08T08:53:22.621Z,20.25
2023-05-08T08:58:33.747Z,19.93
2023-05-08T09:03:37.985Z,18.95
2023-05-08T09:08:46.167Z,17.98
2023-05-08T09:13:51.887Z,17.16
2023-05-08T09:18:55.775Z,16.35
2023-05-08T09:24:01.558Z,15.91
2023-05-08T09:29:17.934Z,15.21
2023-05-08T09:34:27.929Z,14.94
2023-05-08T09:39:32.020Z,14.61
2023-05-08T09:44:47.294Z,14.46
2023-05-08T09:50:01.624Z,14.36
2023-05-08T09:55:07.711Z,14.14
2023-05-08T10:00:15.051Z,14.17
2023-05-08T10:05:29.893Z,14.51
2023-05-08T10:10:36.975Z,14.67
2023-05-08T10:15:44.634Z,14.54
2023-05-08T10:20:49.997Z,14.52
2023-05-08T10:25:59.178Z,14.75
2023-05-08T10:31:06.325Z,15.25
2023-05-08T10:36:13.291Z,16.07
2023-05-08T10:41:18.009Z,16.12
2023-05-08T10:46:30.549Z,15.94
2023-05-08T10:51:41.910Z,16.53
2023-05-08T10:56:45.835Z,17.03
2023-05-08T11:01:51.607Z,17.46
2023-05-08T11:06:55.641Z,18.38
2023-05-08T11:12:11.502Z,20.01
2023-05-08T11:17:24.905Z,20.84
2023-05-08T11:22:31.183Z,19.71
2023-05-08T11:27:40.989Z,20.80
2023-05-08T11:33:14.462Z,19.87
2023-05-08T11:38:20.525Z,19.43
2023-05-08T11:43:58.139Z,19.42
2023-05-08T11:49:03.866Z,18.96
2023-05-08T11:54:07.885Z,18.66
2023-05-08T11:59:11.787Z,20.60
2023-05-08T12:04:17.166Z,22.10
2023-05-08T12:09:21.564Z,23.53
2023-05-08T12:14:25.647Z,22.39
2023-05-08T12:19:30.964Z,20.65
2023-05-08T12:24:35.276Z,19.75
2023-05-08T12:29:39.620Z,19.50
2023-05-08T12:34:45.151Z,19.24
2023-05-08T12:39:49.167Z,18.66
2023-05-08T12:44:54.119Z,18.14
2023-05-08T12:50:00.553Z,17.62
2023-05-08T12:55:04.656Z,17.35
2023-05-08T13:00:09.699Z,17.10
2023-05-08T13:05:20.352Z,16.89
2023-05-08T13:10:26.086Z,16.41
2023-05-08T13:15:31.318Z,15.68
2023-05-08T13:20:36.889Z,15.22
2023-05-08T13:25:42.158Z,15.09
2023-05-08T13:30:49.449Z,15.06
2023-05-08T13:40:59.490Z,15.17
2023-05-08T13:46:05.437Z,15.80
2023-05-08T13:51:12.074Z,15.74
2023-05-08T13:56:16.136Z,15.04
2023-05-08T14:01:26.260Z,14.32
2023-05-08T14:06:32.726Z,14.56
2023-05-08T14:11:36.672Z,14.24
2023-05-08T14:16:42.490Z,13.86
2023-05-08T14:21:47.831Z,13.58
2023-05-08T14:26:52.058Z,13.42
2023-05-08T14:31:56.058Z,13.48
2023-05-08T14:37:01.466Z,13.42
2023-05-08T14:42:22.073Z,13.27
2023-05-08T14:47:27.563Z,13.16
2023-05-08T14:52:34.955Z,12.87
2023-05-08T14:57:38.651Z,12.64
2023-05-08T15:02:42.580Z,12.53
2023-05-08T15:07:51.596Z,12.51
2023-05-08T15:12:55.548Z,12.55
2023-05-08T15:17:59.504Z,12.50
2023-05-08T15:23:04.834Z,12.35
2023-05-08T15:28:08.715Z,12.27
2023-05-08T15:33:12.622Z,12.16
2023-05-08T15:43:47.547Z,12.22
2023-05-08T15:48:51.495Z,12.48
2023-05-08T15:53:56.753Z,12.50
2023-05-08T15:59:00.660Z,12.57
2023-05-08T16:04:04.631Z,12.56
2023-05-08T16:09:09.983Z,12.54
2023-05-08T16:14:13.976Z,12.52
2023-05-08T16:19:17.882Z,12.49
2023-05-08T16:24:23.258Z,12.41
2023-05-08T16:29:27.221Z,12.40
2023-05-08T16:34:31.206Z,12.25
2023-05-08T16:39:36.877Z,12.26
2023-05-08T16:44:40.840Z,12.20
2023-05-08T16:49:45.155Z,12.13
2023-05-08T16:54:50.744Z,11.99
2023-05-08T16:59:54.712Z,11.98
2023-05-08T17:04:58.759Z,12.04
2023-05-08T17:10:04.109Z,12.08
2023-05-08T17:15:08.940Z,12.01
2023-05-08T17:20:14.365Z,12.07
2023-05-08T17:25:19.918Z,12.10
2023-05-08T17:30:26.314Z,12.13
2023-05-08T17:35:30.316Z,12.06
2023-05-08T17:40:38.708Z,12.14
2023-05-08T17:45:43.733Z,12.23
2023-05-08T17:50:47.619Z,12.14
2023-05-08T17:55:52.976Z,12.14
2023-05-08T18:00:57.132Z,12.11
2023-05-08T18:06:01.026Z,12.04
2023-05-08T18:11:06.389Z,12.01
2023-05-08T18:16:14.893Z,11.92
2023-05-08T18:21:19.179Z,11.83
2023-05-08T18:26:24.567Z,11.80
2023-05-08T18:31:28.506Z,11.83
2023-05-08T18:36:32.898Z,11.75
2023-05-08T18:41:38.412Z,11.69
2023-05-08T18:46:42.592Z,11.71
2023-05-08T18:51:46.588Z,11.71
2023-05-08T18:56:51.896Z,11.71
2023-05-08T19:01:55.756Z,11.64
2023-05-08T19:07:00.810Z,11.61
2023-05-08T19:12:06.173Z,11.59
2023-05-08T19:17:10.082Z,11.58
2023-05-08T19:22:13.976Z,11.51
2023-05-08T19:27:19.269Z,11.47
2023-05-08T19:32:23.233Z,11.40
2023-05-08T19:37:27.203Z,11.36
2023-05-08T19:42:32.492Z,11.31
2023-05-08T19:47:36.500Z,11.24
2023-05-08T19:52:40.564Z,11.25
2023-05-08T19:57:46.261Z,11.22
2023-05-08T20:02:50.234Z,11.12
2023-05-08T20:07:54.318Z,11.08
2023-05-08T20:12:59.643Z,11.08
2023-05-08T20:18:03.555Z,11.07
2023-05-08T20:23:07.497Z,11.15
2023-05-08T20:28:12.817Z,11.14
2023-05-08T20:33:16.761Z,11.23
2023-05-08T20:38:20.841Z,11.38
2023-05-08T20:43:26.180Z,11.31
2023-05-08T20:48:30.130Z,11.18
2023-05-08T20:53:35.972Z,11.09
2023-05-08T20:58:43.012Z,11.09
2023-05-08T21:03:46.890Z,11.00
2023-05-08T21:08:51.368Z,10.93
2023-05-08T21:13:56.646Z,10.97
2023-05-08T21:19:00.500Z,10.89
2023-05-08T21:24:05.440Z,10.87
2023-05-08T21:29:14.286Z,10.89
2023-05-08T21:34:21.316Z,10.88
2023-05-08T21:39:25.165Z,10.90
2023-05-08T21:44:30.606Z,11.01
2023-05-08T21:49:34.595Z,11.07
2023-05-08T21:54:38.514Z,11.23
2023-05-08T21:59:43.956Z,11.22
2023-05-08T22:04:47.818Z,11.28
2023-05-08T22:09:51.771Z,11.25
2023-05-08T22:14:57.028Z,11.20
2023-05-08T22:20:00.974Z,11.10
2023-05-08T22:25:05.684Z,10.88
2023-05-08T22:30:11.664Z,10.75
2023-05-08T22:35:16.096Z,10.65
2023-05-08T22:40:20.569Z,10.68
2023-05-08T22:45:26.939Z,10.72
2023-05-08T22:50:32.827Z,10.71
2023-05-08T22:55:36.838Z,10.68
2023-05-08T23:00:42.104Z,10.61
2023-05-08T23:05:46.067Z,10.64
2023-05-08T23:10:50.098Z,10.51
2023-05-08T23:15:55.440Z,10.36
2023-05-08T23:20:59.335Z,10.30
2023-05-08T23:26:05.170Z,10.50
2023-05-08T23:31:10.582Z,10.49
2023-05-08T23:36:15.402Z,10.28
2023-05-08T23:41:19.387Z,9.92
2023-05-08T23:46:24.778Z,9.81
2023-05-08T23:51:28.691Z,9.75
2023-05-08T23:56:32.565Z,9.85
